Northleach, United Kingdom
Current Conditions -  °F | °C
As of 10:58 AM on Thursday 18 Dec 2014 (Local Time) from EGVA Reporting Station
Overcast Overcast  
Wind Chill: 53°   Ceiling: 1200
Heat Index: 53°   Visibility: 6mi
Dew Point: 51°   Wind: 29mph
Humidity: 90%   Direction: 250°WSW
Pressure: 29.8"   Gusts: 38mph
Location:  51.83°N, 1.84°W
Report Text: EGVA 181058Z AUTO 25025G33KT 9999 OVC012 12/10 A2980 RMK AO2 PK WND 25037/18 RAB1003E1018DZB1018E1026 SLP095 P0000 T01190103
Loading
Personal Weather Stations






























Interactive Weather Map New forecast layout! Learn more

10-Day Weather Forecast

Advertisements
Track Severe Weather on mobile